<?xml version="1.0" encoding="UTF-8" standalone="no" ?>
<gpx xmlns="http://www.topografix.com/GPX/1/1" xmlns:xsi="http://www.w3.org/2001/XMLSchema-instance" xsi:schemaLocation="http://www.topografix.com/GPX/1/1 http://www.topografix.com/GPX/1/1/gpx.xsd" version="1.1" creator="VisuGPX - https://www.visugpx.com">
  <metadata>
    <name>14734519-POTEAU DES BRUYERES 16</name>
  </metadata>
  <trk>
    <name><![CDATA[14734519-POTEAU DES BRUYERES 16]]></name>
    <trkseg>
      <trkpt lat="48.61652" lon="1.92958">
        <ele>177</ele>
        <time>2022-05-11T07:40:28Z</time>
      </trkpt>
      <trkpt lat="48.61491" lon="1.93051">
        <ele>173</ele>
        <time>2022-05-11T07:42:46Z</time>
      </trkpt>
      <trkpt lat="48.61389" lon="1.93162">
        <ele>156</ele>
        <time>2022-05-11T07:44:27Z</time>
      </trkpt>
      <trkpt lat="48.61353" lon="1.93232">
        <ele>149</ele>
        <time>2022-05-11T07:45:14Z</time>
      </trkpt>
      <trkpt lat="48.6131" lon="1.93398">
        <ele>140</ele>
        <time>2022-05-11T07:46:48Z</time>
      </trkpt>
      <trkpt lat="48.61223" lon="1.9329">
        <ele>140</ele>
        <time>2022-05-11T07:48:18Z</time>
      </trkpt>
      <trkpt lat="48.61063" lon="1.93372">
        <ele>135</ele>
        <time>2022-05-11T07:50:33Z</time>
      </trkpt>
      <trkpt lat="48.60938" lon="1.93411">
        <ele>131</ele>
        <time>2022-05-11T07:52:15Z</time>
      </trkpt>
      <trkpt lat="48.61221" lon="1.93775">
        <ele>132</ele>
        <time>2022-05-11T07:57:13Z</time>
      </trkpt>
      <trkpt lat="48.61434" lon="1.94012">
        <ele>165</ele>
        <time>2022-05-11T08:00:45Z</time>
      </trkpt>
      <trkpt lat="48.61378" lon="1.9413">
        <ele>162</ele>
        <time>2022-05-11T08:02:02Z</time>
      </trkpt>
      <trkpt lat="48.61384" lon="1.942">
        <ele>160</ele>
        <time>2022-05-11T08:02:39Z</time>
      </trkpt>
      <trkpt lat="48.61366" lon="1.94361">
        <ele>151</ele>
        <time>2022-05-11T08:04:05Z</time>
      </trkpt>
      <trkpt lat="48.61333" lon="1.94528">
        <ele>147</ele>
        <time>2022-05-11T08:05:38Z</time>
      </trkpt>
      <trkpt lat="48.61061" lon="1.94218">
        <ele>126</ele>
        <time>2022-05-11T08:10:10Z</time>
      </trkpt>
      <trkpt lat="48.60832" lon="1.93979">
        <ele>125</ele>
        <time>2022-05-11T08:13:53Z</time>
      </trkpt>
      <trkpt lat="48.60786" lon="1.93985">
        <ele>125</ele>
        <time>2022-05-11T08:14:30Z</time>
      </trkpt>
      <trkpt lat="48.60705" lon="1.94179">
        <ele>126</ele>
        <time>2022-05-11T08:16:32Z</time>
      </trkpt>
      <trkpt lat="48.60938" lon="1.94446">
        <ele>125</ele>
        <time>2022-05-11T08:20:26Z</time>
      </trkpt>
      <trkpt lat="48.60691" lon="1.94956">
        <ele>120</ele>
        <time>2022-05-11T08:26:00Z</time>
      </trkpt>
      <trkpt lat="48.60076" lon="1.95288">
        <ele>120</ele>
        <time>2022-05-11T08:34:43Z</time>
      </trkpt>
      <trkpt lat="48.5985" lon="1.95686">
        <ele>127</ele>
        <time>2022-05-11T08:39:21Z</time>
      </trkpt>
      <trkpt lat="48.60022" lon="1.95711">
        <ele>125</ele>
        <time>2022-05-11T08:41:39Z</time>
      </trkpt>
      <trkpt lat="48.60103" lon="1.9591">
        <ele>126</ele>
        <time>2022-05-11T08:43:43Z</time>
      </trkpt>
      <trkpt lat="48.60225" lon="1.95885">
        <ele>121</ele>
        <time>2022-05-11T08:45:22Z</time>
      </trkpt>
      <trkpt lat="48.60221" lon="1.96069">
        <ele>135</ele>
        <time>2022-05-11T08:46:59Z</time>
      </trkpt>
      <trkpt lat="48.60279" lon="1.96247">
        <ele>145</ele>
        <time>2022-05-11T08:48:44Z</time>
      </trkpt>
      <trkpt lat="48.60316" lon="1.9636">
        <ele>146</ele>
        <time>2022-05-11T08:49:51Z</time>
      </trkpt>
      <trkpt lat="48.60279" lon="1.96426">
        <ele>143</ele>
        <time>2022-05-11T08:50:37Z</time>
      </trkpt>
      <trkpt lat="48.60299" lon="1.96554">
        <ele>141</ele>
        <time>2022-05-11T08:51:46Z</time>
      </trkpt>
      <trkpt lat="48.60319" lon="1.96732">
        <ele>141</ele>
        <time>2022-05-11T08:53:22Z</time>
      </trkpt>
      <trkpt lat="48.60424" lon="1.96788">
        <ele>146</ele>
        <time>2022-05-11T08:54:51Z</time>
      </trkpt>
      <trkpt lat="48.60705" lon="1.96118">
        <ele>120</ele>
        <time>2022-05-11T09:01:51Z</time>
      </trkpt>
      <trkpt lat="48.60703" lon="1.95994">
        <ele>118</ele>
        <time>2022-05-11T09:02:57Z</time>
      </trkpt>
      <trkpt lat="48.60591" lon="1.95854">
        <ele>114</ele>
        <time>2022-05-11T09:04:53Z</time>
      </trkpt>
      <trkpt lat="48.60358" lon="1.95626">
        <ele>118</ele>
        <time>2022-05-11T09:08:35Z</time>
      </trkpt>
      <trkpt lat="48.60728" lon="1.94951">
        <ele>120</ele>
        <time>2022-05-11T09:16:20Z</time>
      </trkpt>
      <trkpt lat="48.61399" lon="1.94635">
        <ele>151</ele>
        <time>2022-05-11T09:25:42Z</time>
      </trkpt>
      <trkpt lat="48.61311" lon="1.94849">
        <ele>140</ele>
        <time>2022-05-11T09:27:56Z</time>
      </trkpt>
      <trkpt lat="48.61284" lon="1.95104">
        <ele>136</ele>
        <time>2022-05-11T09:30:12Z</time>
      </trkpt>
      <trkpt lat="48.61257" lon="1.95364">
        <ele>129</ele>
        <time>2022-05-11T09:32:32Z</time>
      </trkpt>
      <trkpt lat="48.61234" lon="1.95523">
        <ele>127</ele>
        <time>2022-05-11T09:33:58Z</time>
      </trkpt>
      <trkpt lat="48.61217" lon="1.95732">
        <ele>125</ele>
        <time>2022-05-11T09:35:49Z</time>
      </trkpt>
      <trkpt lat="48.61352" lon="1.95293">
        <ele>139</ele>
        <time>2022-05-11T09:40:06Z</time>
      </trkpt>
      <trkpt lat="48.61409" lon="1.94992">
        <ele>147</ele>
        <time>2022-05-11T09:42:51Z</time>
      </trkpt>
      <trkpt lat="48.61483" lon="1.94737">
        <ele>151</ele>
        <time>2022-05-11T09:45:19Z</time>
      </trkpt>
      <trkpt lat="48.61406" lon="1.94603">
        <ele>152</ele>
        <time>2022-05-11T09:46:53Z</time>
      </trkpt>
      <trkpt lat="48.61597" lon="1.94229">
        <ele>168</ele>
        <time>2022-05-11T09:51:03Z</time>
      </trkpt>
      <trkpt lat="48.61748" lon="1.93888">
        <ele>166</ele>
        <time>2022-05-11T09:54:40Z</time>
      </trkpt>
      <trkpt lat="48.62103" lon="1.93148">
        <ele>176</ele>
        <time>2022-05-11T10:02:44Z</time>
      </trkpt>
      <trkpt lat="48.6196" lon="1.92993">
        <ele>178</ele>
        <time>2022-05-11T10:05:05Z</time>
      </trkpt>
      <trkpt lat="48.61729" lon="1.92964">
        <ele>178</ele>
        <time>2022-05-11T10:08:11Z</time>
      </trkpt>
    </trkseg>
  </trk>
</gpx>